sensor_id;sensor_type;location;lat;lon;timestamp;temperature;humidity
49042;DHT22;34859;51.608;11.462;2024-01-07T00:02:43;0.70;99.90
49042;DHT22;34859;51.608;11.462;2024-01-07T00:05:29;0.70;99.90
49042;DHT22;34859;51.608;11.462;2024-01-07T00:08:15;0.60;99.90
49042;DHT22;34859;51.608;11.462;2024-01-07T00:11:00;0.60;99.90
49042;DHT22;34859;51.608;11.462;2024-01-07T00:13:46;0.60;99.90
49042;DHT22;34859;51.608;11.462;2024-01-07T00:16:32;0.50;99.90
49042;DHT22;34859;51.608;11.462;2024-01-07T00:19:18;0.40;99.90
49042;DHT22;34859;51.608;11.462;2024-01-07T00:22:03;0.50;99.90
49042;DHT22;34859;51.608;11.462;2024-01-07T00:24:49;0.40;99.90
49042;DHT22;34859;51.608;11.462;2024-01-07T00:27:35;0.40;99.90
49042;DHT22;34859;51.608;11.462;2024-01-07T00:30:20;0.40;99.90
49042;DHT22;34859;51.608;11.462;2024-01-07T00:33:06;0.40;99.90
49042;DHT22;34859;51.608;11.462;2024-01-07T00:35:52;0.40;99.90
49042;DHT22;34859;51.608;11.462;2024-01-07T00:38:37;0.40;99.90
49042;DHT22;34859;51.608;11.462;2024-01-07T00:41:23;0.40;99.90
49042;DHT22;34859;51.608;11.462;2024-01-07T00:44:09;0.40;99.90
49042;DHT22;34859;51.608;11.462;2024-01-07T00:46:55;0.40;99.90
49042;DHT22;34859;51.608;11.462;2024-01-07T00:49:41;0.40;99.90
49042;DHT22;34859;51.608;11.462;2024-01-07T00:52:26;0.30;99.90
49042;DHT22;34859;51.608;11.462;2024-01-07T00:55:12;0.30;99.90
49042;DHT22;34859;51.608;11.462;2024-01-07T00:57:58;0.20;99.90
49042;DHT22;34859;51.608;11.462;2024-01-07T01:00:43;0.10;99.90
49042;DHT22;34859;51.608;11.462;2024-01-07T01:03:29;0.10;99.90
49042;DHT22;34859;51.608;11.462;2024-01-07T01:06:14;0.10;99.90
49042;DHT22;34859;51.608;11.462;2024-01-07T01:09:00;0.10;99.90
49042;DHT22;34859;51.608;11.462;2024-01-07T01:11:46;0.10;99.90
49042;DHT22;34859;51.608;11.462;2024-01-07T01:14:31;0.10;99.90
49042;DHT22;34859;51.608;11.462;2024-01-07T01:17:17;0.10;99.90
49042;DHT22;34859;51.608;11.462;2024-01-07T01:20:03;0.10;99.90
49042;DHT22;34859;51.608;11.462;2024-01-07T01:22:49;0.10;99.90
49042;DHT22;34859;51.608;11.462;2024-01-07T01:25:34;0.10;99.90
49042;DHT22;34859;51.608;11.462;2024-01-07T01:28:21;0.10;99.90
49042;DHT22;34859;51.608;11.462;2024-01-07T01:31:06;0.20;99.90
49042;DHT22;34859;51.608;11.462;2024-01-07T01:33:52;0.20;99.90
49042;DHT22;34859;51.608;11.462;2024-01-07T01:36:38;0.00;99.90
49042;DHT22;34859;51.608;11.462;2024-01-07T01:39:23;0.00;99.90
49042;DHT22;34859;51.608;11.462;2024-01-07T01:42:09;0.00;99.90
49042;DHT22;34859;51.608;11.462;2024-01-07T01:44:55;0.00;99.90
49042;DHT22;34859;51.608;11.462;2024-01-07T01:47:46;-0.10;99.90
49042;DHT22;34859;51.608;11.462;2024-01-07T01:50:31;0.00;99.90
49042;DHT22;34859;51.608;11.462;2024-01-07T01:53:17;-0.10;99.90
49042;DHT22;34859;51.608;11.462;2024-01-07T01:56:03;-0.10;99.90
49042;DHT22;34859;51.608;11.462;2024-01-07T01:58:49;-0.10;99.90
49042;DHT22;34859;51.608;11.462;2024-01-07T02:01:35;-0.10;99.90
49042;DHT22;34859;51.608;11.462;2024-01-07T02:04:20;-0.10;99.90
49042;DHT22;34859;51.608;11.462;2024-01-07T02:07:06;-0.10;99.90
49042;DHT22;34859;51.608;11.462;2024-01-07T02:09:52;0.00;99.90
49042;DHT22;34859;51.608;11.462;2024-01-07T02:12:37;-0.10;99.90
49042;DHT22;34859;51.608;11.462;2024-01-07T02:15:23;-0.10;99.90
49042;DHT22;34859;51.608;11.462;2024-01-07T02:18:09;-0.20;99.90
49042;DHT22;34859;51.608;11.462;2024-01-07T02:20:54;-0.20;99.90
49042;DHT22;34859;51.608;11.462;2024-01-07T02:23:40;-0.30;99.90
49042;DHT22;34859;51.608;11.462;2024-01-07T02:26:26;-0.20;99.90
49042;DHT22;34859;51.608;11.462;2024-01-07T02:29:11;-0.20;99.90
49042;DHT22;34859;51.608;11.462;2024-01-07T02:31:57;-0.30;99.90
49042;DHT22;34859;51.608;11.462;2024-01-07T02:34:43;-0.30;99.90
49042;DHT22;34859;51.608;11.462;2024-01-07T02:37:29;-0.30;99.90
49042;DHT22;34859;51.608;11.462;2024-01-07T02:40:15;-0.30;99.90
49042;DHT22;34859;51.608;11.462;2024-01-07T02:43:00;-0.40;99.90
49042;DHT22;34859;51.608;11.462;2024-01-07T02:45:46;-0.50;99.90
49042;DHT22;34859;51.608;11.462;2024-01-07T02:48:32;-0.50;99.90
49042;DHT22;34859;51.608;11.462;2024-01-07T02:51:17;-0.50;99.90
49042;DHT22;34859;51.608;11.462;2024-01-07T02:54:03;-0.50;99.90
49042;DHT22;34859;51.608;11.462;2024-01-07T02:56:48;-0.60;99.90
49042;DHT22;34859;51.608;11.462;2024-01-07T02:59:35;-0.60;99.90
49042;DHT22;34859;51.608;11.462;2024-01-07T03:02:20;-0.60;99.90
49042;DHT22;34859;51.608;11.462;2024-01-07T03:05:06;-0.60;99.90
49042;DHT22;34859;51.608;11.462;2024-01-07T03:07:52;-0.60;99.90
49042;DHT22;34859;51.608;11.462;2024-01-07T03:10:37;-0.60;99.90
49042;DHT22;34859;51.608;11.462;2024-01-07T03:13:23;-0.60;99.90
49042;DHT22;34859;51.608;11.462;2024-01-07T03:16:19;-0.70;99.90
49042;DHT22;34859;51.608;11.462;2024-01-07T03:19:05;-0.70;99.90
49042;DHT22;34859;51.608;11.462;2024-01-07T03:21:51;-0.70;99.90
49042;DHT22;34859;51.608;11.462;2024-01-07T03:24:36;-0.70;99.90
49042;DHT22;34859;51.608;11.462;2024-01-07T03:27:22;-0.70;99.90
49042;DHT22;34859;51.608;11.462;2024-01-07T03:30:08;-0.80;99.90
49042;DHT22;34859;51.608;11.462;2024-01-07T03:32:54;-0.80;99.90
49042;DHT22;34859;51.608;11.462;2024-01-07T03:35:40;-0.80;99.90
49042;DHT22;34859;51.608;11.462;2024-01-07T03:38:25;-0.80;99.90
49042;DHT22;34859;51.608;11.462;2024-01-07T03:41:18;-0.90;99.90
49042;DHT22;34859;51.608;11.462;2024-01-07T03:44:04;-0.90;99.90
49042;DHT22;34859;51.608;11.462;2024-01-07T03:46:49;-0.90;99.90
49042;DHT22;34859;51.608;11.462;2024-01-07T03:49:36;-0.90;99.90
49042;DHT22;34859;51.608;11.462;2024-01-07T03:52:23;-0.80;99.90
49042;DHT22;34859;51.608;11.462;2024-01-07T03:55:08;-0.90;99.90
49042;DHT22;34859;51.608;11.462;2024-01-07T03:57:54;-0.90;99.90
49042;DHT22;34859;51.608;11.462;2024-01-07T04:00:39;-0.90;99.90
49042;DHT22;34859;51.608;11.462;2024-01-07T04:03:25;-0.90;99.90
49042;DHT22;34859;51.608;11.462;2024-01-07T04:06:11;-0.90;99.90
49042;DHT22;34859;51.608;11.462;2024-01-07T04:08:56;-1.00;99.90
49042;DHT22;34859;51.608;11.462;2024-01-07T04:11:42;-1.00;99.90
49042;DHT22;34859;51.608;11.462;2024-01-07T04:14:28;-0.90;99.90
49042;DHT22;34859;51.608;11.462;2024-01-07T04:17:14;-0.90;99.90
49042;DHT22;34859;51.608;11.462;2024-01-07T04:20:00;-0.90;99.90
49042;DHT22;34859;51.608;11.462;2024-01-07T04:22:46;-0.90;99.90
49042;DHT22;34859;51.608;11.462;2024-01-07T04:25:31;-0.90;99.90
49042;DHT22;34859;51.608;11.462;2024-01-07T04:28:17;-0.90;99.90
49042;DHT22;34859;51.608;11.462;2024-01-07T04:31:02;-0.80;99.90
49042;DHT22;34859;51.608;11.462;2024-01-07T04:33:48;-0.80;99.90
49042;DHT22;34859;51.608;11.462;2024-01-07T04:36:34;-0.90;99.90
49042;DHT22;34859;51.608;11.462;2024-01-07T04:39:19;-0.90;99.90
49042;DHT22;34859;51.608;11.462;2024-01-07T04:42:06;-0.80;99.90
49042;DHT22;34859;51.608;11.462;2024-01-07T04:44:51;-0.90;99.90
49042;DHT22;34859;51.608;11.462;2024-01-07T04:47:37;-0.90;99.90
49042;DHT22;34859;51.608;11.462;2024-01-07T04:50:23;-0.80;99.90
49042;DHT22;34859;51.608;11.462;2024-01-07T04:53:09;-0.80;99.90
49042;DHT22;34859;51.608;11.462;2024-01-07T04:55:54;-0.80;99.90
49042;DHT22;34859;51.608;11.462;2024-01-07T04:58:40;-0.80;99.90
49042;DHT22;34859;51.608;11.462;2024-01-07T05:01:26;-0.80;99.90
49042;DHT22;34859;51.608;11.462;2024-01-07T05:04:11;-0.80;99.90
49042;DHT22;34859;51.608;11.462;2024-01-07T05:06:57;-0.80;99.90
49042;DHT22;34859;51.608;11.462;2024-01-07T05:09:42;-0.90;99.90
49042;DHT22;34859;51.608;11.462;2024-01-07T05:12:28;-1.00;99.90
49042;DHT22;34859;51.608;11.462;2024-01-07T05:15:14;-1.00;99.90
49042;DHT22;34859;51.608;11.462;2024-01-07T05:18:00;-1.00;99.90
49042;DHT22;34859;51.608;11.462;2024-01-07T05:20:46;-1.00;99.90
49042;DHT22;34859;51.608;11.462;2024-01-07T05:23:31;-1.00;99.90
49042;DHT22;34859;51.608;11.462;2024-01-07T05:26:17;-0.90;99.90
49042;DHT22;34859;51.608;11.462;2024-01-07T05:29:02;-1.00;99.90
49042;DHT22;34859;51.608;11.462;2024-01-07T05:31:48;-1.00;99.90
49042;DHT22;34859;51.608;11.462;2024-01-07T05:34:34;-1.00;99.90
49042;DHT22;34859;51.608;11.462;2024-01-07T05:37:19;-1.00;99.90
49042;DHT22;34859;51.608;11.462;2024-01-07T05:40:06;-1.10;99.90
49042;DHT22;34859;51.608;11.462;2024-01-07T05:42:52;-1.10;99.90
49042;DHT22;34859;51.608;11.462;2024-01-07T05:45:37;-1.10;99.90
49042;DHT22;34859;51.608;11.462;2024-01-07T05:48:23;-1.00;99.90
49042;DHT22;34859;51.608;11.462;2024-01-07T05:51:09;-1.00;99.90
49042;DHT22;34859;51.608;11.462;2024-01-07T05:53:54;-1.10;99.90
49042;DHT22;34859;51.608;11.462;2024-01-07T05:56:40;-1.00;99.90
49042;DHT22;34859;51.608;11.462;2024-01-07T05:59:26;-1.10;99.90
49042;DHT22;34859;51.608;11.462;2024-01-07T06:02:12;-1.10;99.90
49042;DHT22;34859;51.608;11.462;2024-01-07T06:04:57;-1.10;99.90
49042;DHT22;34859;51.608;11.462;2024-01-07T06:07:43;-1.20;99.90
49042;DHT22;34859;51.608;11.462;2024-01-07T06:10:29;-1.20;99.90
49042;DHT22;34859;51.608;11.462;2024-01-07T06:13:15;-1.20;99.90
49042;DHT22;34859;51.608;11.462;2024-01-07T06:16:00;-1.20;99.90
49042;DHT22;34859;51.608;11.462;2024-01-07T06:18:46;-1.20;99.90
49042;DHT22;34859;51.608;11.462;2024-01-07T06:21:32;-1.20;99.90
49042;DHT22;34859;51.608;11.462;2024-01-07T06:24:17;-1.20;99.90
49042;DHT22;34859;51.608;11.462;2024-01-07T06:27:03;-1.30;99.90
49042;DHT22;34859;51.608;11.462;2024-01-07T06:29:49;-1.30;99.90
49042;DHT22;34859;51.608;11.462;2024-01-07T06:32:35;-1.40;99.90
49042;DHT22;34859;51.608;11.462;2024-01-07T06:35:21;-1.40;99.90
49042;DHT22;34859;51.608;11.462;2024-01-07T06:38:07;-1.30;99.90
49042;DHT22;34859;51.608;11.462;2024-01-07T06:40:52;-1.30;99.90
49042;DHT22;34859;51.608;11.462;2024-01-07T06:43:40;-1.30;99.90
49042;DHT22;34859;51.608;11.462;2024-01-07T06:46:26;-1.30;99.90
49042;DHT22;34859;51.608;11.462;2024-01-07T06:49:12;-1.40;99.90
49042;DHT22;34859;51.608;11.462;2024-01-07T06:51:57;-1.40;99.90
49042;DHT22;34859;51.608;11.462;2024-01-07T06:54:43;-1.50;99.90
49042;DHT22;34859;51.608;11.462;2024-01-07T06:57:29;-1.50;99.90
49042;DHT22;34859;51.608;11.462;2024-01-07T07:00:15;-1.50;99.90
49042;DHT22;34859;51.608;11.462;2024-01-07T07:03:01;-1.50;99.90
49042;DHT22;34859;51.608;11.462;2024-01-07T07:05:46;-1.40;99.90
49042;DHT22;34859;51.608;11.462;2024-01-07T07:08:32;-1.40;99.90
49042;DHT22;34859;51.608;11.462;2024-01-07T07:11:18;-1.50;99.90
49042;DHT22;34859;51.608;11.462;2024-01-07T07:14:03;-1.40;99.90
49042;DHT22;34859;51.608;11.462;2024-01-07T07:16:49;-1.50;99.90
49042;DHT22;34859;51.608;11.462;2024-01-07T07:19:35;-1.50;99.90
49042;DHT22;34859;51.608;11.462;2024-01-07T07:22:20;-1.50;99.90
49042;DHT22;34859;51.608;11.462;2024-01-07T07:25:06;-1.60;99.90
49042;DHT22;34859;51.608;11.462;2024-01-07T07:27:52;-1.60;99.90
49042;DHT22;34859;51.608;11.462;2024-01-07T07:30:38;-1.60;99.90
49042;DHT22;34859;51.608;11.462;2024-01-07T07:33:24;-1.70;99.90
49042;DHT22;34859;51.608;11.462;2024-01-07T07:36:09;-1.60;99.90
49042;DHT22;34859;51.608;11.462;2024-01-07T07:38:55;-1.70;99.90
49042;DHT22;34859;51.608;11.462;2024-01-07T07:41:41;-1.70;99.90
49042;DHT22;34859;51.608;11.462;2024-01-07T07:44:26;-1.80;99.90
49042;DHT22;34859;51.608;11.462;2024-01-07T07:47:12;-1.80;99.90
49042;DHT22;34859;51.608;11.462;2024-01-07T07:49:58;-1.80;99.90
49042;DHT22;34859;51.608;11.462;2024-01-07T07:52:44;-1.80;99.90
49042;DHT22;34859;51.608;11.462;2024-01-07T07:55:30;-1.80;99.90
49042;DHT22;34859;51.608;11.462;2024-01-07T07:58:15;-1.80;99.90
49042;DHT22;34859;51.608;11.462;2024-01-07T08:01:01;-1.80;99.90
49042;DHT22;34859;51.608;11.462;2024-01-07T08:03:47;-1.90;99.90
49042;DHT22;34859;51.608;11.462;2024-01-07T08:06:33;-1.90;99.90
49042;DHT22;34859;51.608;11.462;2024-01-07T08:09:18;-1.90;99.90
49042;DHT22;34859;51.608;11.462;2024-01-07T08:23:57;-2.00;99.90
49042;DHT22;34859;51.608;11.462;2024-01-07T08:31:26;-1.90;99.90
49042;DHT22;34859;51.608;11.462;2024-01-07T08:35:30;-2.00;99.90
49042;DHT22;34859;51.608;11.462;2024-01-07T08:39:29;-1.90;99.90
49042;DHT22;34859;51.608;11.462;2024-01-07T08:51:01;-1.90;99.90
49042;DHT22;34859;51.608;11.462;2024-01-07T08:55:05;-1.90;99.90
49042;DHT22;34859;51.608;11.462;2024-01-07T08:58:50;-2.00;99.90
49042;DHT22;34859;51.608;11.462;2024-01-07T09:06:56;-1.90;99.90
49042;DHT22;34859;51.608;11.462;2024-01-07T09:10:58;-2.00;99.90
49042;DHT22;34859;51.608;11.462;2024-01-07T09:38:18;-2.00;99.90
49042;DHT22;34859;51.608;11.462;2024-01-07T09:42:43;-2.00;99.90
49042;DHT22;34859;51.608;11.462;2024-01-07T09:50:36;-1.80;99.90
49042;DHT22;34859;51.608;11.462;2024-01-07T09:54:38;-1.80;99.90
49042;DHT22;34859;51.608;11.462;2024-01-07T11:01:55;-1.70;99.90
49042;DHT22;34859;51.608;11.462;2024-01-07T11:09:40;-1.50;99.90
49042;DHT22;34859;51.608;11.462;2024-01-07T11:51:33;-1.30;99.90
49042;DHT22;34859;51.608;11.462;2024-01-07T11:57:32;-1.20;99.90
49042;DHT22;34859;51.608;11.462;2024-01-07T12:00:19;-1.20;99.90
49042;DHT22;34859;51.608;11.462;2024-01-07T12:03:06;-1.10;99.90
49042;DHT22;34859;51.608;11.462;2024-01-07T12:05:54;-0.90;99.90
49042;DHT22;34859;51.608;11.462;2024-01-07T12:08:41;-0.80;99.90
49042;DHT22;34859;51.608;11.462;2024-01-07T12:11:28;-0.70;99.90
49042;DHT22;34859;51.608;11.462;2024-01-07T12:14:15;-0.60;99.90
49042;DHT22;34859;51.608;11.462;2024-01-07T12:17:02;-0.60;99.90
49042;DHT22;34859;51.608;11.462;2024-01-07T12:19:49;-0.60;99.90
49042;DHT22;34859;51.608;11.462;2024-01-07T12:22:40;-0.70;99.90
49042;DHT22;34859;51.608;11.462;2024-01-07T12:25:26;-0.60;99.90
49042;DHT22;34859;51.608;11.462;2024-01-07T12:28:13;-0.60;99.90
49042;DHT22;34859;51.608;11.462;2024-01-07T12:31:00;-0.60;99.90
49042;DHT22;34859;51.608;11.462;2024-01-07T12:33:47;-0.70;99.90
49042;DHT22;34859;51.608;11.462;2024-01-07T12:36:34;-0.80;99.90
49042;DHT22;34859;51.608;11.462;2024-01-07T12:39:21;-0.90;99.90
49042;DHT22;34859;51.608;11.462;2024-01-07T12:42:09;-0.80;99.90
49042;DHT22;34859;51.608;11.462;2024-01-07T12:44:56;-0.90;99.90
49042;DHT22;34859;51.608;11.462;2024-01-07T12:47:43;-0.70;99.90
49042;DHT22;34859;51.608;11.462;2024-01-07T12:50:29;-0.70;99.90
49042;DHT22;34859;51.608;11.462;2024-01-07T12:53:17;-0.60;99.90
49042;DHT22;34859;51.608;11.462;2024-01-07T12:56:04;-0.70;99.90
49042;DHT22;34859;51.608;11.462;2024-01-07T12:58:51;-0.90;99.90
49042;DHT22;34859;51.608;11.462;2024-01-07T13:01:38;-0.90;99.90
49042;DHT22;34859;51.608;11.462;2024-01-07T13:04:25;-1.00;99.90
49042;DHT22;34859;51.608;11.462;2024-01-07T13:07:12;-1.00;99.90
49042;DHT22;34859;51.608;11.462;2024-01-07T13:09:58;-1.00;99.90
49042;DHT22;34859;51.608;11.462;2024-01-07T13:12:46;-1.00;99.90
49042;DHT22;34859;51.608;11.462;2024-01-07T13:15:32;-1.00;99.90
49042;DHT22;34859;51.608;11.462;2024-01-07T13:18:19;-0.90;99.90
49042;DHT22;34859;51.608;11.462;2024-01-07T13:21:06;-1.00;99.90
49042;DHT22;34859;51.608;11.462;2024-01-07T13:23:53;-1.00;99.90
49042;DHT22;34859;51.608;11.462;2024-01-07T13:26:39;-1.00;99.90
49042;DHT22;34859;51.608;11.462;2024-01-07T13:29:28;-1.00;99.90
49042;DHT22;34859;51.608;11.462;2024-01-07T13:43:54;-0.90;99.90
49042;DHT22;34859;51.608;11.462;2024-01-07T13:59:26;-1.00;99.90
49042;DHT22;34859;51.608;11.462;2024-01-07T14:07:22;-1.00;99.90
49042;DHT22;34859;51.608;11.462;2024-01-07T14:14:58;-0.90;99.90
49042;DHT22;34859;51.608;11.462;2024-01-07T14:18:42;-0.90;99.90
49042;DHT22;34859;51.608;11.462;2024-01-07T14:22:47;-0.90;99.90
49042;DHT22;34859;51.608;11.462;2024-01-07T14:30:34;-0.90;99.90
49042;DHT22;34859;51.608;11.462;2024-01-07T14:38:26;-0.90;99.90
49042;DHT22;34859;51.608;11.462;2024-01-07T14:53:38;-0.90;99.90
49042;DHT22;34859;51.608;11.462;2024-01-07T15:01:01;-1.00;99.90
49042;DHT22;34859;51.608;11.462;2024-01-07T15:05:17;-0.90;99.90
49042;DHT22;34859;51.608;11.462;2024-01-07T15:09:07;-0.90;99.90
49042;DHT22;34859;51.608;11.462;2024-01-07T15:12:51;-0.90;99.90
49042;DHT22;34859;51.608;11.462;2024-01-07T15:27:59;-0.90;99.90
49042;DHT22;34859;51.608;11.462;2024-01-07T15:31:33;-0.90;99.90
49042;DHT22;34859;51.608;11.462;2024-01-07T16:05:25;-1.00;99.90
49042;DHT22;34859;51.608;11.462;2024-01-07T16:09:26;-0.90;99.90
49042;DHT22;34859;51.608;11.462;2024-01-07T16:17:23;-0.90;99.90
49042;DHT22;34859;51.608;11.462;2024-01-07T16:25:14;-0.80;99.90
49042;DHT22;34859;51.608;11.462;2024-01-07T16:39:58;-0.80;99.90
49042;DHT22;34859;51.608;11.462;2024-01-07T16:43:46;-0.70;99.90
49042;DHT22;34859;51.608;11.462;2024-01-07T16:58:30;-0.70;99.90
49042;DHT22;34859;51.608;11.462;2024-01-07T17:02:21;-0.60;99.90
49042;DHT22;34859;51.608;11.462;2024-01-07T17:06:04;-0.70;99.90
49042;DHT22;34859;51.608;11.462;2024-01-07T17:14:02;-0.70;99.90
49042;DHT22;34859;51.608;11.462;2024-01-07T17:57:40;-0.60;99.90
49042;DHT22;34859;51.608;11.462;2024-01-07T18:00:27;-0.70;99.90
49042;DHT22;34859;51.608;11.462;2024-01-07T18:03:13;-0.70;99.90
49042;DHT22;34859;51.608;11.462;2024-01-07T18:06:00;-0.70;99.90
49042;DHT22;34859;51.608;11.462;2024-01-07T18:08:47;-0.70;99.90
49042;DHT22;34859;51.608;11.462;2024-01-07T18:11:34;-0.70;99.90
49042;DHT22;34859;51.608;11.462;2024-01-07T18:14:21;-0.70;99.90
49042;DHT22;34859;51.608;11.462;2024-01-07T18:17:09;-0.70;99.90
49042;DHT22;34859;51.608;11.462;2024-01-07T18:19:55;-0.70;99.90
49042;DHT22;34859;51.608;11.462;2024-01-07T18:22:42;-0.70;99.90
49042;DHT22;34859;51.608;11.462;2024-01-07T18:25:29;-0.70;99.90
49042;DHT22;34859;51.608;11.462;2024-01-07T18:28:16;-0.70;99.90
49042;DHT22;34859;51.608;11.462;2024-01-07T18:31:03;-0.80;99.90
49042;DHT22;34859;51.608;11.462;2024-01-07T18:33:50;-0.70;99.90
49042;DHT22;34859;51.608;11.462;2024-01-07T18:36:37;-0.70;99.90
49042;DHT22;34859;51.608;11.462;2024-01-07T18:39:24;-0.70;99.90
49042;DHT22;34859;51.608;11.462;2024-01-07T18:42:10;-0.70;99.90
49042;DHT22;34859;51.608;11.462;2024-01-07T18:44:57;-0.70;99.90
49042;DHT22;34859;51.608;11.462;2024-01-07T18:47:44;-0.70;99.90
49042;DHT22;34859;51.608;11.462;2024-01-07T18:50:31;-0.70;99.90
49042;DHT22;34859;51.608;11.462;2024-01-07T18:53:18;-0.80;99.90
49042;DHT22;34859;51.608;11.462;2024-01-07T18:56:06;-0.80;99.90
49042;DHT22;34859;51.608;11.462;2024-01-07T18:58:53;-0.80;99.90
49042;DHT22;34859;51.608;11.462;2024-01-07T19:01:41;-0.80;99.90
49042;DHT22;34859;51.608;11.462;2024-01-07T19:04:28;-0.80;99.90
49042;DHT22;34859;51.608;11.462;2024-01-07T19:07:15;-0.80;99.90
49042;DHT22;34859;51.608;11.462;2024-01-07T19:10:01;-0.80;99.90
49042;DHT22;34859;51.608;11.462;2024-01-07T19:12:49;-0.80;99.90
49042;DHT22;34859;51.608;11.462;2024-01-07T19:15:35;-0.80;99.90
49042;DHT22;34859;51.608;11.462;2024-01-07T19:18:24;-0.80;99.90
49042;DHT22;34859;51.608;11.462;2024-01-07T19:21:15;-0.90;99.90
49042;DHT22;34859;51.608;11.462;2024-01-07T19:24:03;-0.80;99.90
49042;DHT22;34859;51.608;11.462;2024-01-07T19:26:50;-0.80;99.90
49042;DHT22;34859;51.608;11.462;2024-01-07T19:29:36;-0.90;99.90
49042;DHT22;34859;51.608;11.462;2024-01-07T19:32:24;-0.80;99.90
49042;DHT22;34859;51.608;11.462;2024-01-07T19:35:10;-0.80;99.90
49042;DHT22;34859;51.608;11.462;2024-01-07T19:37:57;-0.80;99.90
49042;DHT22;34859;51.608;11.462;2024-01-07T19:40:44;-0.80;99.90
49042;DHT22;34859;51.608;11.462;2024-01-07T19:43:31;-0.90;99.90
49042;DHT22;34859;51.608;11.462;2024-01-07T19:46:24;-0.90;99.90
49042;DHT22;34859;51.608;11.462;2024-01-07T19:49:11;-0.90;99.90
49042;DHT22;34859;51.608;11.462;2024-01-07T19:51:58;-0.80;99.90
49042;DHT22;34859;51.608;11.462;2024-01-07T19:54:45;-0.80;99.90
49042;DHT22;34859;51.608;11.462;2024-01-07T19:57:32;-0.80;99.90
49042;DHT22;34859;51.608;11.462;2024-01-07T20:00:19;-0.80;99.90
49042;DHT22;34859;51.608;11.462;2024-01-07T20:03:06;-0.80;99.90
49042;DHT22;34859;51.608;11.462;2024-01-07T20:05:53;-0.80;99.90
49042;DHT22;34859;51.608;11.462;2024-01-07T20:08:44;-0.80;99.90
49042;DHT22;34859;51.608;11.462;2024-01-07T20:11:31;-0.90;99.90
49042;DHT22;34859;51.608;11.462;2024-01-07T20:14:21;-0.90;99.90
49042;DHT22;34859;51.608;11.462;2024-01-07T20:17:08;-0.80;99.90
49042;DHT22;34859;51.608;11.462;2024-01-07T20:19:55;-0.90;99.90
49042;DHT22;34859;51.608;11.462;2024-01-07T20:22:42;-0.90;99.90
49042;DHT22;34859;51.608;11.462;2024-01-07T20:25:29;-0.90;99.90
49042;DHT22;34859;51.608;11.462;2024-01-07T20:28:16;-1.00;99.90
49042;DHT22;34859;51.608;11.462;2024-01-07T20:31:07;-1.00;99.90
49042;DHT22;34859;51.608;11.462;2024-01-07T20:33:54;-0.90;99.90
49042;DHT22;34859;51.608;11.462;2024-01-07T20:36:41;-0.90;99.90
49042;DHT22;34859;51.608;11.462;2024-01-07T20:39:28;-1.00;99.90
49042;DHT22;34859;51.608;11.462;2024-01-07T20:42:15;-1.00;99.90
49042;DHT22;34859;51.608;11.462;2024-01-07T20:45:01;-1.00;99.90
49042;DHT22;34859;51.608;11.462;2024-01-07T20:47:48;-0.90;99.90
49042;DHT22;34859;51.608;11.462;2024-01-07T20:50:35;-0.90;99.90
49042;DHT22;34859;51.608;11.462;2024-01-07T20:53:23;-0.90;99.90
49042;DHT22;34859;51.608;11.462;2024-01-07T20:56:10;-0.90;99.90
49042;DHT22;34859;51.608;11.462;2024-01-07T20:58:57;-0.90;99.90
49042;DHT22;34859;51.608;11.462;2024-01-07T21:01:44;-1.00;99.90
49042;DHT22;34859;51.608;11.462;2024-01-07T21:04:31;-1.00;99.90
49042;DHT22;34859;51.608;11.462;2024-01-07T21:07:18;-1.00;99.90
49042;DHT22;34859;51.608;11.462;2024-01-07T21:10:04;-1.00;99.90
49042;DHT22;34859;51.608;11.462;2024-01-07T21:12:51;-0.90;99.90
49042;DHT22;34859;51.608;11.462;2024-01-07T21:15:38;-0.90;99.90
49042;DHT22;34859;51.608;11.462;2024-01-07T21:18:27;-0.90;99.90
49042;DHT22;34859;51.608;11.462;2024-01-07T21:21:14;-0.90;99.90
49042;DHT22;34859;51.608;11.462;2024-01-07T21:24:01;-0.90;99.90
49042;DHT22;34859;51.608;11.462;2024-01-07T21:26:48;-0.90;99.90
49042;DHT22;34859;51.608;11.462;2024-01-07T21:29:35;-0.90;99.90
49042;DHT22;34859;51.608;11.462;2024-01-07T21:32:22;-0.90;99.90
49042;DHT22;34859;51.608;11.462;2024-01-07T21:35:12;-0.90;99.90
49042;DHT22;34859;51.608;11.462;2024-01-07T21:37:59;-0.90;99.90
49042;DHT22;34859;51.608;11.462;2024-01-07T21:40:46;-1.00;99.90
49042;DHT22;34859;51.608;11.462;2024-01-07T21:43:32;-1.00;99.90
49042;DHT22;34859;51.608;11.462;2024-01-07T21:46:19;-0.90;99.90
49042;DHT22;34859;51.608;11.462;2024-01-07T21:53:12;-1.00;99.90
49042;DHT22;34859;51.608;11.462;2024-01-07T21:57:16;-1.00;99.90
49042;DHT22;34859;51.608;11.462;2024-01-07T22:04:52;-0.90;99.90
49042;DHT22;34859;51.608;11.462;2024-01-07T22:31:15;-1.00;99.90
49042;DHT22;34859;51.608;11.462;2024-01-07T22:35:06;-1.00;99.90
49042;DHT22;34859;51.608;11.462;2024-01-07T22:46:29;-1.00;99.90
49042;DHT22;34859;51.608;11.462;2024-01-07T22:57:36;-1.00;99.90
49042;DHT22;34859;51.608;11.462;2024-01-07T23:56:28;-1.40;99.90
49042;DHT22;34859;51.608;11.462;2024-01-07T23:59:13;-1.50;99.90
